Briefing drone pour Voiron

Rechercher une autre localisation

Conditions de vol :


Nous sommes le : Dimanche 29 janvier 2023
Il est 02:02 UTC (03:02 LT)

Lever de soleil : 06:35 UTC (07:35 LT)
Coucher de soleil : 17:05 UTC (18:05 LT)

Météo

L'essentiel des conditions de vol

VIGILANCE MÉTÉO FRANCE - Isère (38)
Pas de vigilances particulieres
CARTE TEMSI
CARTES DES FRONTS
METAR de LFLS
LFLS 290130Z AUTO 36005KT 9999 OVC039 00/M03 Q1024

Date d'émission: 29/01/2023
Heure d'émission: 01:30 UTC
Vent: 360° pour 5 KT (9 km/h)
Visibilité horizontale: > 10 km
Plafond :
- Couvert à 3900ft (1189m)
Température: 0 °C
Point de rosée: -3 °C
Humidité: 80%
Pression (QNH): 1024 hPa
TAF de LFLS
LFLS 282006Z 2820/2915 CNL

Conditions prévues :

Heure d'émission : Bulletin éffectué le 28 à 20:00 UTC
Prévision : Valide du 28 a 20:00 UTC au 29 a 15:00 UTC
Nuages : à 0ft (0 m)
WEBCAM POUR VOIRON

Réglementation

Voler en sécurité

CARTES AERONAUTIQUE 1/500.000
CARTE AZBA (Reseau basse altitude)
CARTES VAC (LFLS)
SUP AIP




Chargement des AIP...
NOTAM (VOIRON + Terrain à proximité / FIR )




Chargement des NOTAMS...
CONTACT PREFECTURE 38
Isère (38) : [email protected]


Avertissement : Les données mises à disposition sont indicatives. Oxygène Drone ne pourra être tenu responsable de dégâts causés aux biens et aux personnes.